Vermilion Dam, Minnesota
Current Conditions -  °F | °C
As of 2:53 PM on Sunday 21 Dec 2014 (Local Time) from KORB Reporting Station
Haze Haze  
Wind Chill: 22°   Ceiling: 500
Heat Index: 30°   Visibility: 3mi
Dew Point: 28°   Wind: 9mph
Humidity: 93%   Direction: 150°SSE
Pressure: 29.69"   Gusts: NA
Location:  48.1455°N, 92.8504°W
Report Text: KORB 212053Z AUTO 15008KT 3SM BR OVC005 M01/M02 A2969 RMK AO2
Loading
Personal Weather Stations






























Interactive Weather Map New forecast layout! Learn more

10-Day Weather Forecast

Advertisements
Track Severe Weather on mobile